createdAt,value
2022-09-12T00:01:09.238Z,8.50
2022-09-12T00:03:37.368Z,7.93
2022-09-12T00:06:12.116Z,8.57
2022-09-12T00:08:39.064Z,8.30
2022-09-12T00:11:08.844Z,7.82
2022-09-12T00:13:41.434Z,8.00
2022-09-12T00:16:20.110Z,9.10
2022-09-12T00:18:47.327Z,8.90
2022-09-12T00:21:15.490Z,9.73
2022-09-12T00:23:42.389Z,9.98
2022-09-12T00:26:10.188Z,8.80
2022-09-12T00:28:38.526Z,8.13
2022-09-12T00:31:09.883Z,7.90
2022-09-12T00:33:37.366Z,7.05
2022-09-12T00:36:07.340Z,7.10
2022-09-12T00:38:38.840Z,6.80
2022-09-12T00:41:06.500Z,6.90
2022-09-12T00:43:41.396Z,6.90
2022-09-12T00:46:14.124Z,6.55
2022-09-12T00:48:54.260Z,7.13
2022-09-12T00:51:21.764Z,6.97
2022-09-12T00:53:53.765Z,6.95
2022-09-12T00:56:22.351Z,7.47
2022-09-12T00:58:58.576Z,7.90
2022-09-12T01:01:29.234Z,7.95
2022-09-12T01:03:59.524Z,8.38
2022-09-12T01:06:30.632Z,9.73
2022-09-12T01:08:59.320Z,9.70
2022-09-12T01:11:26.675Z,10.30
2022-09-12T01:13:55.151Z,11.20
2022-09-12T01:16:21.972Z,11.75
2022-09-12T01:19:26.699Z,11.75
2022-09-12T01:22:24.034Z,11.70
2022-09-12T01:25:08.312Z,11.82
2022-09-12T01:27:44.329Z,12.18
2022-09-12T01:30:25.408Z,12.40
2022-09-12T01:33:22.112Z,13.45
2022-09-12T01:36:19.770Z,13.10
2022-09-12T01:38:48.663Z,13.27
2022-09-12T01:41:40.575Z,14.85
2022-09-12T01:44:28.981Z,13.68
2022-09-12T01:47:09.620Z,15.60
2022-09-12T01:49:58.978Z,14.67
2022-09-12T01:52:28.395Z,14.68
2022-09-12T01:55:01.000Z,14.68
2022-09-12T01:57:32.640Z,15.27
2022-09-12T02:00:05.437Z,13.73
2022-09-12T02:02:48.624Z,14.60
2022-09-12T02:05:32.024Z,14.20
2022-09-12T02:08:10.025Z,13.95
2022-09-12T02:11:08.367Z,15.05
2022-09-12T02:13:41.684Z,14.50
2022-09-12T02:16:21.880Z,15.47
2022-09-12T02:18:55.721Z,15.70
2022-09-12T02:21:23.930Z,15.52
2022-09-12T02:23:56.999Z,16.48
2022-09-12T02:26:29.779Z,16.40
2022-09-12T02:28:57.935Z,14.27
2022-09-12T02:31:29.918Z,15.30
2022-09-12T02:34:02.930Z,15.80
2022-09-12T02:36:43.433Z,15.48
2022-09-12T02:39:10.496Z,15.57
2022-09-12T02:41:37.320Z,14.57
2022-09-12T02:44:04.793Z,15.15
2022-09-12T02:46:45.232Z,16.52
2022-09-12T02:49:11.886Z,15.45
2022-09-12T02:51:38.552Z,16.20
2022-09-12T02:54:07.584Z,15.63
2022-09-12T02:56:34.573Z,15.65
2022-09-12T02:59:08.254Z,14.68
2022-09-12T03:01:56.618Z,16.38
2022-09-12T03:04:35.699Z,15.43
2022-09-12T03:07:12.440Z,15.23
2022-09-12T03:09:48.177Z,14.85
2022-09-12T03:12:49.172Z,15.45
2022-09-12T03:15:32.162Z,15.52
2022-09-12T03:18:26.588Z,15.43
2022-09-12T03:21:04.553Z,15.37
2022-09-12T03:23:54.153Z,14.80
2022-09-12T03:26:56.525Z,15.73
2022-09-12T03:29:25.642Z,15.23
2022-09-12T03:31:56.055Z,16.05
2022-09-12T03:34:25.543Z,15.53
2022-09-12T03:36:53.033Z,14.85
2022-09-12T03:39:20.351Z,14.80
2022-09-12T03:41:47.096Z,14.93
2022-09-12T03:44:13.535Z,15.10
2022-09-12T03:46:40.206Z,14.83
2022-09-12T03:49:06.803Z,15.10
2022-09-12T03:51:33.308Z,14.77
2022-09-12T03:54:00.029Z,14.73
2022-09-12T03:56:27.711Z,15.43
2022-09-12T03:58:54.167Z,15.07
2022-09-12T04:01:21.485Z,15.32
2022-09-12T04:03:50.259Z,13.90
2022-09-12T04:06:19.259Z,16.38
2022-09-12T04:08:54.650Z,15.52
2022-09-12T04:11:22.606Z,15.93
2022-09-12T04:13:49.359Z,15.73
2022-09-12T04:16:17.719Z,14.88
2022-09-12T04:18:44.478Z,16.00
2022-09-12T04:21:14.816Z,15.27
2022-09-12T04:23:41.561Z,14.97
2022-09-12T04:26:08.333Z,14.93
2022-09-12T04:28:37.151Z,15.23
2022-09-12T04:31:07.675Z,15.13
2022-09-12T04:33:35.369Z,14.68
2022-09-12T04:36:11.498Z,14.90
2022-09-12T04:38:38.676Z,15.00
2022-09-12T04:41:19.040Z,15.00
2022-09-12T04:43:46.426Z,15.30
2022-09-12T04:46:16.588Z,15.25
2022-09-12T04:48:43.996Z,15.97
2022-09-12T04:51:33.655Z,15.23
2022-09-12T04:54:03.152Z,15.55
2022-09-12T04:56:30.592Z,16.05
2022-09-12T04:58:59.181Z,15.93
2022-09-12T05:01:27.961Z,15.30
2022-09-12T05:03:55.517Z,15.75
2022-09-12T05:06:24.739Z,16.80
2022-09-12T05:08:53.318Z,16.30
2022-09-12T05:11:24.932Z,15.80
2022-09-12T05:13:53.553Z,15.87
2022-09-12T05:16:21.402Z,15.48
2022-09-12T05:18:48.969Z,15.60
2022-09-12T05:21:18.180Z,16.20
2022-09-12T05:23:45.003Z,15.68
2022-09-12T05:26:16.386Z,15.60
2022-09-12T05:28:44.095Z,16.23
2022-09-12T05:31:15.073Z,16.30
2022-09-12T05:33:44.395Z,15.95
2022-09-12T05:36:17.705Z,16.35
2022-09-12T05:38:45.558Z,16.23
2022-09-12T05:41:25.137Z,16.25
2022-09-12T05:43:54.595Z,15.90
2022-09-12T05:46:25.891Z,16.23
2022-09-12T05:48:56.274Z,17.50
2022-09-12T05:51:26.707Z,15.70
2022-09-12T05:53:58.607Z,15.38
2022-09-12T05:56:29.721Z,16.67
2022-09-12T05:59:02.114Z,16.27
2022-09-12T06:01:30.956Z,15.45
2022-09-12T06:04:03.342Z,16.67
2022-09-12T06:06:31.586Z,16.42
2022-09-12T06:09:00.480Z,16.70
2022-09-12T06:11:29.806Z,16.33
2022-09-12T06:13:58.180Z,16.05
2022-09-12T06:16:27.883Z,17.20
2022-09-12T06:18:57.600Z,16.67
2022-09-12T06:21:26.549Z,16.88
2022-09-12T06:23:55.073Z,16.48
2022-09-12T06:26:24.782Z,15.68
2022-09-12T06:28:53.989Z,16.73
2022-09-12T06:31:27.315Z,17.38
2022-09-12T06:33:55.170Z,17.10
2022-09-12T06:36:27.333Z,16.02
2022-09-12T06:39:03.410Z,17.88
2022-09-12T06:41:31.521Z,18.37
2022-09-12T06:43:59.627Z,18.70
2022-09-12T06:46:27.154Z,17.20
2022-09-12T06:48:56.572Z,18.02
2022-09-12T06:51:24.513Z,18.50
2022-09-12T06:53:52.501Z,18.20
2022-09-12T06:56:21.925Z,17.40
2022-09-12T06:58:50.172Z,17.35
2022-09-12T07:01:19.429Z,19.00
2022-09-12T07:03:51.372Z,18.98
2022-09-12T07:06:20.232Z,18.90
2022-09-12T07:08:47.215Z,18.80
2022-09-12T07:11:25.661Z,17.90
2022-09-12T07:13:56.739Z,18.65
2022-09-12T07:16:23.884Z,17.20
2022-09-12T07:18:55.644Z,18.27
2022-09-12T07:21:22.879Z,17.80
2022-09-12T07:23:51.935Z,17.23
2022-09-12T07:26:23.039Z,17.63
2022-09-12T07:28:54.715Z,17.08
2022-09-12T07:31:26.663Z,16.93
2022-09-12T07:33:54.816Z,16.15
2022-09-12T07:36:24.672Z,16.48
2022-09-12T07:38:57.631Z,16.65
2022-09-12T07:41:28.218Z,16.75
2022-09-12T07:43:57.933Z,15.53
2022-09-12T07:46:25.681Z,14.77
2022-09-12T07:48:53.548Z,15.60
2022-09-12T07:51:21.214Z,14.40
2022-09-12T07:53:49.217Z,14.70
2022-09-12T07:56:19.984Z,15.13
2022-09-12T07:58:47.168Z,14.60
2022-09-12T08:01:19.569Z,14.95
2022-09-12T08:03:48.893Z,15.68
2022-09-12T08:06:21.574Z,15.25
2022-09-12T08:08:48.796Z,14.27
2022-09-12T08:11:17.725Z,14.07
2022-09-12T08:13:45.269Z,14.80
2022-09-12T08:16:14.865Z,13.95
2022-09-12T08:18:41.853Z,13.65
2022-09-12T08:21:14.343Z,13.40
2022-09-12T08:23:41.404Z,13.73
2022-09-12T08:26:09.642Z,13.60
2022-09-12T08:28:37.371Z,12.68
2022-09-12T08:31:06.193Z,12.65
2022-09-12T08:33:33.635Z,12.90
2022-09-12T08:36:04.913Z,12.00
2022-09-12T08:38:32.377Z,12.23
2022-09-12T08:41:14.008Z,12.27
2022-09-12T08:43:52.067Z,12.85
2022-09-12T08:46:38.773Z,12.50
2022-09-12T08:49:10.719Z,11.27
2022-09-12T08:51:40.084Z,11.10
2022-09-12T08:54:19.326Z,10.32
2022-09-12T08:56:47.708Z,10.55
2022-09-12T08:59:15.230Z,10.27
2022-09-12T09:01:44.684Z,10.25
2022-09-12T09:04:42.339Z,11.50
2022-09-12T09:07:21.503Z,10.90
2022-09-12T09:10:02.682Z,9.90
2022-09-12T09:12:34.609Z,10.53
2022-09-12T09:15:12.649Z,10.80
2022-09-12T09:17:49.975Z,9.52
2022-09-12T09:20:45.117Z,10.07
2022-09-12T09:23:34.654Z,9.65
2022-09-12T09:26:09.303Z,9.57
2022-09-12T09:28:58.683Z,10.07
2022-09-12T09:31:30.915Z,8.85
2022-09-12T09:33:57.528Z,8.70
2022-09-12T09:36:56.110Z,8.73
2022-09-12T09:39:34.084Z,8.50
2022-09-12T09:42:25.458Z,8.85
2022-09-12T09:44:54.306Z,8.73
2022-09-12T09:47:20.907Z,8.50
2022-09-12T09:49:47.901Z,8.73
2022-09-12T09:52:18.531Z,8.37
2022-09-12T09:54:58.841Z,8.77
2022-09-12T09:57:34.583Z,8.45
2022-09-12T10:00:35.314Z,8.35
2022-09-12T10:03:13.538Z,8.70
2022-09-12T10:06:21.087Z,9.40
2022-09-12T10:08:48.828Z,9.02
2022-09-12T10:11:15.444Z,9.07
2022-09-12T10:13:53.747Z,9.20
2022-09-12T10:16:25.915Z,9.40
2022-09-12T10:18:53.373Z,9.10
2022-09-12T10:21:23.472Z,9.80
2022-09-12T10:24:03.340Z,9.13
2022-09-12T10:26:38.223Z,8.20
2022-09-12T10:29:32.363Z,8.80
2022-09-12T10:32:06.487Z,9.00
2022-09-12T10:34:44.853Z,8.15
2022-09-12T10:37:24.320Z,8.02
2022-09-12T10:39:54.778Z,7.65
2022-09-12T10:42:58.737Z,7.68
2022-09-12T10:45:32.020Z,7.63
2022-09-12T10:48:05.418Z,7.05
2022-09-12T10:50:41.763Z,7.10
2022-09-12T10:53:19.577Z,6.63
2022-09-12T10:56:13.514Z,8.48
2022-09-12T10:58:52.003Z,7.87
2022-09-12T11:01:24.701Z,7.47
2022-09-12T11:04:18.272Z,7.22
2022-09-12T11:07:19.098Z,7.43
2022-09-12T11:10:02.246Z,7.57
2022-09-12T11:12:41.628Z,8.40
2022-09-12T11:15:30.317Z,7.15
2022-09-12T11:18:03.527Z,7.22
2022-09-12T11:20:46.283Z,6.57
2022-09-12T11:23:35.310Z,5.97
2022-09-12T11:26:24.085Z,5.10
2022-09-12T11:29:30.554Z,5.97
2022-09-12T11:32:21.573Z,5.93
2022-09-12T11:34:51.198Z,6.75
2022-09-12T11:37:35.784Z,6.30
2022-09-12T11:40:37.036Z,6.57
2022-09-12T11:43:20.231Z,6.60
2022-09-12T11:45:48.371Z,6.70
2022-09-12T11:48:38.857Z,6.50
2022-09-12T11:51:11.705Z,6.28
2022-09-12T11:53:42.634Z,6.10
2022-09-12T11:56:16.985Z,6.03
2022-09-12T11:58:49.196Z,6.32
2022-09-12T12:01:21.677Z,5.32
2022-09-12T12:03:49.194Z,4.63
2022-09-12T12:06:28.018Z,6.17
2022-09-12T12:08:55.279Z,5.28
2022-09-12T12:11:45.197Z,4.88
2022-09-12T12:14:23.599Z,5.20
2022-09-12T12:16:50.998Z,4.50
2022-09-12T12:19:17.564Z,5.00
2022-09-12T12:21:46.242Z,4.72
2022-09-12T12:24:22.564Z,4.65
2022-09-12T12:26:58.429Z,4.70
2022-09-12T12:29:31.453Z,4.75
2022-09-12T12:32:03.923Z,4.87
2022-09-12T12:34:38.978Z,5.22
2022-09-12T12:37:21.250Z,4.70
2022-09-12T12:39:48.277Z,5.05
2022-09-12T12:42:36.669Z,5.10
2022-09-12T12:45:09.724Z,5.40
2022-09-12T12:47:36.500Z,4.90
2022-09-12T12:50:12.139Z,4.10
2022-09-12T12:52:53.956Z,4.13
2022-09-12T12:55:27.535Z,4.57
2022-09-12T12:57:56.637Z,4.40
2022-09-12T13:00:26.510Z,3.80
2022-09-12T13:03:18.324Z,3.42
2022-09-12T13:05:49.092Z,3.67
2022-09-12T13:08:18.634Z,4.18
2022-09-12T13:11:10.598Z,3.90
2022-09-12T13:13:39.303Z,4.15
2022-09-12T13:16:06.120Z,3.90
2022-09-12T13:18:43.031Z,3.45
2022-09-12T13:21:13.257Z,3.92
2022-09-12T13:23:40.705Z,3.53
2022-09-12T13:26:13.226Z,3.60
2022-09-12T13:28:39.967Z,4.05
2022-09-12T13:31:22.244Z,4.18
2022-09-12T13:33:53.438Z,4.35
2022-09-12T13:36:49.955Z,4.07
2022-09-12T13:39:49.687Z,4.00
2022-09-12T13:42:16.409Z,4.20
2022-09-12T13:44:50.881Z,3.95
2022-09-12T13:47:27.135Z,4.00
2022-09-12T13:49:55.235Z,4.00
2022-09-12T13:52:26.181Z,4.40
2022-09-12T13:54:56.654Z,3.92
2022-09-12T13:57:39.487Z,3.03
2022-09-12T14:00:13.333Z,3.38
2022-09-12T14:02:40.403Z,3.23
2022-09-12T14:05:22.600Z,3.58
2022-09-12T14:07:56.162Z,3.35
2022-09-12T14:10:34.923Z,3.10
2022-09-12T14:13:05.427Z,3.10
2022-09-12T14:15:36.245Z,2.93
2022-09-12T14:18:05.590Z,3.22
2022-09-12T14:20:36.831Z,2.65
2022-09-12T14:23:29.924Z,3.03
2022-09-12T14:25:58.724Z,3.00
2022-09-12T14:28:30.164Z,3.33
2022-09-12T14:31:22.151Z,2.80
2022-09-12T14:33:51.854Z,2.42
2022-09-12T14:36:30.495Z,1.90
2022-09-12T14:39:03.784Z,2.47
2022-09-12T14:41:38.312Z,2.40
2022-09-12T14:44:08.311Z,2.35
2022-09-12T14:46:37.392Z,2.03
2022-09-12T14:49:14.459Z,2.00
2022-09-12T14:51:53.023Z,1.80
2022-09-12T14:54:28.794Z,2.00
2022-09-12T14:57:04.229Z,2.67
2022-09-12T14:59:33.656Z,2.70
2022-09-12T15:02:19.617Z,2.30
2022-09-12T15:05:08.617Z,2.20
2022-09-12T15:07:37.970Z,2.23
2022-09-12T15:10:24.281Z,2.90
2022-09-12T15:13:06.097Z,2.30
2022-09-12T15:15:33.043Z,2.00
2022-09-12T15:18:02.362Z,2.00
2022-09-12T15:20:40.045Z,2.30
2022-09-12T15:23:14.435Z,2.25
2022-09-12T15:25:41.392Z,2.45
2022-09-12T15:28:20.712Z,2.10
2022-09-12T15:30:50.973Z,2.20
2022-09-12T15:33:19.541Z,1.80
2022-09-12T15:35:47.050Z,2.00
2022-09-12T15:38:14.038Z,2.17
2022-09-12T15:40:40.950Z,1.90
2022-09-12T15:43:07.734Z,2.38
2022-09-12T15:45:35.797Z,1.80
2022-09-12T15:48:03.336Z,2.00
2022-09-12T15:50:30.635Z,2.35
2022-09-12T15:52:59.347Z,2.05
2022-09-12T15:55:29.939Z,2.50
2022-09-12T15:57:56.847Z,2.30
2022-09-12T16:00:24.180Z,2.20
2022-09-12T16:02:53.765Z,2.05
2022-09-12T16:05:23.956Z,2.30
2022-09-12T16:07:53.377Z,2.70
2022-09-12T16:10:26.464Z,2.50
2022-09-12T16:12:58.974Z,2.45
2022-09-12T16:15:29.364Z,2.90
2022-09-12T16:17:56.654Z,3.03
2022-09-12T16:20:24.434Z,2.90
2022-09-12T16:22:51.628Z,2.50
2022-09-12T16:25:19.755Z,2.42
2022-09-12T16:27:47.041Z,2.80
2022-09-12T16:30:13.963Z,2.35
2022-09-12T16:32:40.798Z,2.58
2022-09-12T16:35:08.037Z,2.60
2022-09-12T16:37:34.944Z,2.80
2022-09-12T16:40:03.833Z,2.92
2022-09-12T16:42:31.171Z,2.40
2022-09-12T16:44:59.696Z,2.40
2022-09-12T16:47:32.314Z,2.60
2022-09-12T16:49:59.600Z,2.40
2022-09-12T16:52:27.448Z,2.25
2022-09-12T16:54:54.761Z,2.53
2022-09-12T16:57:25.843Z,2.58
2022-09-12T16:59:55.841Z,2.63
2022-09-12T17:02:22.842Z,2.67
2022-09-12T17:04:49.751Z,2.67
2022-09-12T17:07:16.615Z,2.55
2022-09-12T17:09:47.767Z,3.20
2022-09-12T17:12:14.800Z,3.43
2022-09-12T17:14:41.460Z,3.05
2022-09-12T17:17:08.941Z,3.17
2022-09-12T17:19:35.716Z,3.15
2022-09-12T17:22:02.371Z,3.20
2022-09-12T17:24:29.601Z,3.20
2022-09-12T17:26:57.126Z,3.47
2022-09-12T17:29:24.006Z,3.53
2022-09-12T17:31:55.558Z,3.53
2022-09-12T17:34:23.474Z,3.17
2022-09-12T17:36:50.107Z,3.57
2022-09-12T17:39:17.017Z,3.10
2022-09-12T17:41:46.000Z,3.13
2022-09-12T17:44:14.992Z,3.28
2022-09-12T17:46:42.568Z,3.05
2022-09-12T17:49:13.805Z,3.63
2022-09-12T17:51:41.681Z,3.10
2022-09-12T17:54:12.069Z,3.33
2022-09-12T17:56:44.502Z,3.30
2022-09-12T17:59:21.536Z,3.33
2022-09-12T18:02:07.071Z,3.77
2022-09-12T18:04:33.908Z,3.17
2022-09-12T18:07:00.600Z,3.28
2022-09-12T18:09:28.520Z,3.53
2022-09-12T18:11:55.703Z,3.60
2022-09-12T18:14:22.869Z,3.80
2022-09-12T18:16:50.343Z,3.67
2022-09-12T18:19:17.780Z,4.22
2022-09-12T18:21:44.719Z,3.55
2022-09-12T18:24:12.094Z,3.78
2022-09-12T18:26:39.070Z,3.87
2022-09-12T18:29:05.704Z,3.85
2022-09-12T18:31:32.466Z,3.80
2022-09-12T18:34:02.832Z,3.88
2022-09-12T18:36:30.468Z,4.20
2022-09-12T18:38:58.956Z,3.50
2022-09-12T18:41:26.376Z,4.10
2022-09-12T18:44:00.969Z,3.63
2022-09-12T18:46:30.060Z,3.60
2022-09-12T18:48:57.967Z,3.75
2022-09-12T18:51:36.069Z,3.80
2022-09-12T18:54:08.841Z,4.03
2022-09-12T18:56:38.451Z,4.70
2022-09-12T18:59:06.927Z,3.83
2022-09-12T19:01:36.321Z,4.13
2022-09-12T19:04:07.707Z,4.03
2022-09-12T19:06:39.419Z,4.93
2022-09-12T19:09:08.306Z,4.70
2022-09-12T19:11:37.546Z,4.43
2022-09-12T19:14:04.480Z,5.38
2022-09-12T19:16:31.942Z,6.23
2022-09-12T19:18:59.173Z,5.97
2022-09-12T19:21:29.087Z,5.80
2022-09-12T19:23:58.408Z,6.75
2022-09-12T19:26:25.809Z,6.80
2022-09-12T19:28:54.170Z,6.30
2022-09-12T19:31:21.887Z,6.63
2022-09-12T19:33:49.441Z,6.45
2022-09-12T19:36:41.271Z,6.20
2022-09-12T19:39:06.797Z,6.50
2022-09-12T19:41:33.772Z,6.43
2022-09-12T19:44:00.680Z,7.15
2022-09-12T19:46:27.933Z,7.28
2022-09-12T19:48:54.627Z,7.57
2022-09-12T19:51:23.933Z,7.35
2022-09-12T19:53:51.571Z,7.50
2022-09-12T19:56:18.205Z,7.20
2022-09-12T19:58:46.609Z,7.55
2022-09-12T20:01:14.691Z,7.30
2022-09-12T20:03:41.989Z,6.63
2022-09-12T20:06:10.620Z,6.30
2022-09-12T20:08:38.063Z,6.75
2022-09-12T20:11:04.609Z,6.80
2022-09-12T20:13:31.190Z,7.00
2022-09-12T20:16:21.081Z,6.43
2022-09-12T20:18:55.925Z,6.93
2022-09-12T20:21:32.093Z,7.53
2022-09-12T20:24:07.645Z,7.20
2022-09-12T20:26:34.891Z,7.25
2022-09-12T20:29:01.818Z,7.47
2022-09-12T20:31:28.843Z,7.80
2022-09-12T20:33:56.070Z,7.00
2022-09-12T20:36:22.944Z,7.30
2022-09-12T20:38:57.751Z,7.20
2022-09-12T20:41:26.184Z,6.82
2022-09-12T20:43:54.115Z,7.20
2022-09-12T20:46:22.639Z,7.80
2022-09-12T20:48:50.563Z,7.28
2022-09-12T20:51:17.945Z,8.23
2022-09-12T20:53:44.918Z,7.75
2022-09-12T20:56:11.702Z,8.10
2022-09-12T20:58:41.831Z,7.80
2022-09-12T21:01:13.604Z,7.78
2022-09-12T21:03:41.272Z,7.63
2022-09-12T21:06:09.509Z,7.85
2022-09-12T21:08:37.392Z,7.47
2022-09-12T21:11:05.221Z,7.45
2022-09-12T21:13:31.892Z,7.35
2022-09-12T21:16:03.345Z,7.20
2022-09-12T21:18:31.429Z,7.65
2022-09-12T21:20:58.217Z,7.93
2022-09-12T21:23:26.684Z,7.80
2022-09-12T21:25:53.814Z,8.25
2022-09-12T21:28:21.442Z,7.65
2022-09-12T21:30:50.284Z,8.93
2022-09-12T21:33:18.977Z,7.60
2022-09-12T21:35:46.221Z,8.57
2022-09-12T21:38:14.874Z,8.90
2022-09-12T21:40:45.449Z,9.20
2022-09-12T21:43:13.173Z,9.27
2022-09-12T21:45:40.803Z,8.27
2022-09-12T21:48:08.671Z,8.48
2022-09-12T21:50:35.677Z,8.63
2022-09-12T21:53:02.997Z,8.07
2022-09-12T21:55:30.323Z,8.88
2022-09-12T21:57:57.305Z,8.43
2022-09-12T22:00:24.185Z,8.13
2022-09-12T22:02:50.979Z,8.00
2022-09-12T22:05:18.208Z,8.23
2022-09-12T22:07:45.022Z,8.55
2022-09-12T22:10:11.779Z,7.83
2022-09-12T22:12:40.755Z,8.52
2022-09-12T22:15:36.462Z,9.02
2022-09-12T22:17:57.327Z,7.03
2022-09-12T22:20:24.168Z,6.78
2022-09-12T22:23:09.612Z,7.07
2022-09-12T22:25:37.287Z,8.20
2022-09-12T22:28:04.235Z,7.38
2022-09-12T22:30:32.123Z,7.53
2022-09-12T22:32:59.196Z,7.05
2022-09-12T22:35:29.521Z,7.97
2022-09-12T22:37:56.217Z,6.95
2022-09-12T22:40:23.758Z,7.18
2022-09-12T22:42:53.935Z,7.15
2022-09-12T22:45:20.526Z,6.97
2022-09-12T22:47:48.425Z,6.57
2022-09-12T22:50:15.761Z,6.28
2022-09-12T22:52:42.532Z,6.80
2022-09-12T22:55:09.822Z,7.40
2022-09-12T22:57:37.360Z,7.82
2022-09-12T23:00:08.081Z,7.60
2022-09-12T23:02:35.051Z,7.50
2022-09-12T23:05:02.674Z,7.25
2022-09-12T23:07:32.436Z,6.88
2022-09-12T23:09:59.871Z,6.35
2022-09-12T23:12:26.581Z,5.77
2022-09-12T23:14:53.361Z,6.13
2022-09-12T23:17:20.155Z,5.97
2022-09-12T23:19:46.850Z,5.78
2022-09-12T23:22:13.360Z,5.85
2022-09-12T23:24:40.260Z,5.87
2022-09-12T23:27:06.768Z,5.38
2022-09-12T23:29:35.297Z,6.03
2022-09-12T23:32:04.000Z,5.65
2022-09-12T23:34:30.882Z,5.88
2022-09-12T23:36:57.485Z,5.93
2022-09-12T23:39:34.765Z,5.65
2022-09-12T23:42:02.056Z,5.68
2022-09-12T23:44:28.702Z,5.57
2022-09-12T23:46:55.561Z,5.82
2022-09-12T23:49:22.589Z,5.93
2022-09-12T23:51:49.324Z,5.75
2022-09-12T23:54:16.658Z,6.28
2022-09-12T23:56:43.436Z,5.65
2022-09-12T23:59:10.064Z,6.47
